Time;durP1;ratioP1;P1;durP2;ratioP2;P2;SDS_P1;SDS_P2;PMS_P1;PMS_P2;Temp;Humidity;BMP_temperature;BMP_pressure;BME280_temperature;BME280_humidity;BME280_pressure;Samples;Min_cycle;Max_cycle;Signal;HPM_P1;HPM_P2
2022/08/12 00:43:37;;;;;;;0.50;0.25;;;;;;;;;;4951574;28;20270;-80
2022/08/12 00:49:01;;;;;;;0.22;0.20;;;;;;;;;;4943900;28;20051;-80
2022/08/12 00:54:14;;;;;;;0.17;0.17;;;;;;;;;;4950924;28;20102;-80
2022/08/12 00:56:42;;;;;;;0.57;0.30;;;;;;;;;;4952841;28;20146;-80
2022/08/12 00:59:11;;;;;;;0.20;0.20;;;;;;;;;;4955083;28;20082;-80
2022/08/12 01:01:44;;;;;;;0.30;0.10;;;;;;;;;;4953345;28;20083;-80
2022/08/12 01:13:01;;;;;;;0.52;0.20;;;;;;;;;;4951860;28;20183;-80
2022/08/12 01:15:46;;;;;;;0.20;0.20;;;;;;;;;;4958065;28;20585;-80
2022/08/12 01:18:15;;;;;;;0.10;0.10;;;;;;;;;;4971737;28;20113;-80
2022/08/12 01:20:49;;;;;;;0.30;0.20;;;;;;;;;;4972647;28;20055;-80
2022/08/12 01:23:31;;;;;;;1.05;0.40;;;;;;;;;;4971525;28;20097;-80
2022/08/12 01:26:02;;;;;;;0.65;0.50;;;;;;;;;;4968019;28;20495;-80
2022/08/12 01:28:35;;;;;;;0.32;0.32;;;;;;;;;;4971908;28;20082;-80
2022/08/12 01:31:06;;;;;;;0.13;0.13;;;;;;;;;;4974406;28;20121;-80
2022/08/12 01:33:38;;;;;;;0.17;0.17;;;;;;;;;;4966307;28;20530;-80
2022/08/12 01:36:11;;;;;;;0.20;0.20;;;;;;;;;;4961156;28;20150;-80
2022/08/12 01:38:41;;;;;;;0.10;0.10;;;;;;;;;;4953459;28;20130;-80
2022/08/12 01:41:12;;;;;;;0.20;0.20;;;;;;;;;;4952430;28;20556;-80
2022/08/12 01:43:42;;;;;;;0.10;0.10;;;;;;;;;;4951833;28;20047;-81
2022/08/12 01:46:15;;;;;;;0.35;0.22;;;;;;;;;;4962368;28;20141;-80
2022/08/12 01:48:50;;;;;;;1.50;0.30;;;;;;;;;;4971508;28;20133;-80
2022/08/12 01:51:18;;;;;;;;;;;;;;;;;;4972435;28;20097;-80
2022/08/12 01:54:08;;;;;;;0.55;0.47;;;;;;;;;;4970682;28;19926;-81
2022/08/12 01:56:44;;;;;;;0.20;0.20;;;;;;;;;;4971685;28;20507;-80
2022/08/12 02:02:03;;;;;;;0.25;0.15;;;;;;;;;;4969720;28;20094;-80
2022/08/12 02:13:24;;;;;;;0.52;0.17;;;;;;;;;;4970331;28;20062;-80
2022/08/12 02:16:15;;;;;;;0.75;0.75;;;;;;;;;;4964989;28;20145;-80
2022/08/12 02:18:48;;;;;;;0.32;0.20;;;;;;;;;;4970690;28;20154;-80
2022/08/12 02:21:21;;;;;;;0.17;0.17;;;;;;;;;;4971890;28;20062;-80
2022/08/12 02:23:49;;;;;;;0.35;0.30;;;;;;;;;;4971764;28;20167;-80
2022/08/12 02:26:19;;;;;;;0.30;0.30;;;;;;;;;;4971246;28;20101;-81
2022/08/12 02:28:50;;;;;;;0.20;0.20;;;;;;;;;;4963377;28;20101;-80
2022/08/12 02:31:19;;;;;;;0.10;0.10;;;;;;;;;;4965595;28;20046;-80
2022/08/12 02:33:48;;;;;;;0.52;0.52;;;;;;;;;;4970990;28;20142;-80
2022/08/12 02:36:17;;;;;;;1.25;0.30;;;;;;;;;;4971039;28;20063;-80
2022/08/12 02:38:49;;;;;;;0.25;0.25;;;;;;;;;;4971022;28;20049;-80
2022/08/12 02:41:21;;;;;;;1.65;0.30;;;;;;;;;;4970214;28;20063;-80
2022/08/12 02:43:53;;;;;;;0.30;0.30;;;;;;;;;;4970794;28;20066;-80
2022/08/12 02:46:24;;;;;;;0.45;0.40;;;;;;;;;;4970497;28;20648;-80
2022/08/12 02:48:53;;;;;;;0.10;0.10;;;;;;;;;;4971369;28;20086;-80
2022/08/12 02:51:23;;;;;;;0.20;0.20;;;;;;;;;;4970322;28;20470;-80
2022/08/12 02:53:53;;;;;;;0.35;0.20;;;;;;;;;;4963785;28;20499;-80
2022/08/12 02:56:36;;;;;;;0.30;0.30;;;;;;;;;;4967654;28;20470;-80
2022/08/12 02:59:10;;;;;;;0.10;0.10;;;;;;;;;;4969930;28;20074;-80
2022/08/12 03:01:41;;;;;;;0.20;0.20;;;;;;;;;;4970654;28;20142;-80
2022/08/12 03:04:19;;;;;;;0.50;0.50;;;;;;;;;;4970742;28;20691;-80
2022/08/12 03:06:50;;;;;;;0.10;0.10;;;;;;;;;;4969597;28;20061;-80
2022/08/12 03:09:19;;;;;;;0.38;0.38;;;;;;;;;;4970076;28;20565;-80
2022/08/12 03:11:52;;;;;;;0.50;0.45;;;;;;;;;;4970906;28;20167;-80
2022/08/12 03:14:24;;;;;;;0.22;0.17;;;;;;;;;;4966741;28;20055;-80
2022/08/12 03:17:02;;;;;;;0.28;0.20;;;;;;;;;;4968906;28;20141;-80
2022/08/12 03:19:31;;;;;;;0.40;0.40;;;;;;;;;;4970095;28;20102;-80
2022/08/12 03:22:11;;;;;;;0.28;0.25;;;;;;;;;;4969370;28;20078;-80
2022/08/12 03:24:41;;;;;;;1.98;0.50;;;;;;;;;;4969142;28;20059;-80
2022/08/12 03:27:11;;;;;;;0.20;0.20;;;;;;;;;;4966631;28;20082;-82
2022/08/12 03:29:41;;;;;;;0.30;0.20;;;;;;;;;;4970420;28;20105;-80
2022/08/12 03:32:18;;;;;;;0.08;0.08;;;;;;;;;;4970573;28;20130;-80
2022/08/12 03:35:11;;;;;;;0.50;0.50;;;;;;;;;;4968992;28;20419;-80
2022/08/12 03:38:01;;;;;;;0.73;0.65;;;;;;;;;;4964784;28;20043;-80
2022/08/12 04:02:59;;;;;;;0.52;0.52;;;;;;;;;;4965730;28;20356;-80
2022/08/12 04:05:28;;;;;;;0.63;0.35;;;;;;;;;;4973446;28;20078;-80
2022/08/12 04:08:17;;;;;;;0.50;0.47;;;;;;;;;;4973771;28;20051;-80
2022/08/12 04:13:34;;;;;;;0.50;0.50;;;;;;;;;;4947440;28;20147;-80
2022/08/12 04:16:06;;;;;;;0.82;0.68;;;;;;;;;;4973069;28;20038;-80
2022/08/12 04:18:37;;;;;;;0.75;0.43;;;;;;;;;;4972186;28;20463;-80
2022/08/12 04:21:09;;;;;;;1.55;0.82;;;;;;;;;;4971728;28;20134;-80
2022/08/12 04:23:39;;;;;;;1.33;0.82;;;;;;;;;;4969033;28;20059;-80
2022/08/12 04:26:09;;;;;;;0.10;0.10;;;;;;;;;;4970934;28;20077;-80
2022/08/12 04:28:38;;;;;;;0.32;0.30;;;;;;;;;;4971492;28;20093;-80
2022/08/12 04:31:06;;;;;;;0.88;0.40;;;;;;;;;;4969054;28;20046;-79
2022/08/12 04:33:38;;;;;;;0.52;0.35;;;;;;;;;;4972452;28;20565;-80
2022/08/12 04:36:07;;;;;;;0.20;0.20;;;;;;;;;;4973058;28;20581;-80
2022/08/12 04:38:37;;;;;;;0.52;0.52;;;;;;;;;;4973405;28;20563;-80
2022/08/12 04:41:10;;;;;;;0.30;0.30;;;;;;;;;;4972411;28;20051;-80
2022/08/12 04:43:38;;;;;;;0.80;0.68;;;;;;;;;;4972984;28;20063;-80
2022/08/12 04:46:27;;;;;;;0.40;0.38;;;;;;;;;;4972336;28;20062;-80
2022/08/12 04:49:03;;;;;;;1.33;1.25;;;;;;;;;;4973545;28;20058;-80
2022/08/12 04:51:32;;;;;;;0.95;0.30;;;;;;;;;;4969523;28;20367;-80
2022/08/12 04:54:03;;;;;;;0.17;0.17;;;;;;;;;;4971898;28;20133;-80
2022/08/12 04:56:32;;;;;;;0.80;0.63;;;;;;;;;;4972308;28;20133;-80
2022/08/12 04:59:03;;;;;;;0.43;0.43;;;;;;;;;;4972814;28;20055;-80
2022/08/12 05:01:31;;;;;;;0.88;0.40;;;;;;;;;;4970262;28;20053;-80
2022/08/12 05:04:01;;;;;;;0.68;0.50;;;;;;;;;;4968327;28;20066;-80
2022/08/12 05:06:31;;;;;;;0.63;0.63;;;;;;;;;;4971441;28;20054;-80
2022/08/12 05:09:00;;;;;;;0.98;0.60;;;;;;;;;;4972425;28;20050;-80
2022/08/12 05:11:29;;;;;;;0.55;0.50;;;;;;;;;;4969665;28;20634;-80
2022/08/12 05:14:00;;;;;;;0.35;0.35;;;;;;;;;;4972168;28;20090;-80
2022/08/12 05:16:29;;;;;;;0.50;0.28;;;;;;;;;;4971160;28;20054;-80
2022/08/12 05:19:03;;;;;;;1.77;0.65;;;;;;;;;;4964794;28;20043;-80
2022/08/12 05:21:34;;;;;;;0.10;0.10;;;;;;;;;;4971068;28;20066;-82
2022/08/12 05:24:02;;;;;;;0.40;0.35;;;;;;;;;;4967216;28;20047;-79
2022/08/12 05:26:31;;;;;;;0.22;0.22;;;;;;;;;;4971502;28;20129;-80
2022/08/12 05:28:59;;;;;;;0.28;0.28;;;;;;;;;;4969666;28;20118;-80
2022/08/12 05:31:29;;;;;;;0.32;0.32;;;;;;;;;;4971543;28;20619;-80
2022/08/12 05:34:15;;;;;;;2.13;0.77;;;;;;;;;;4962923;28;20051;-80
2022/08/12 05:36:45;;;;;;;0.30;0.30;;;;;;;;;;4971451;28;20133;-80
2022/08/12 05:39:13;;;;;;;0.40;0.40;;;;;;;;;;4971473;28;20117;-80
2022/08/12 05:41:43;;;;;;;0.82;0.82;;;;;;;;;;4966117;28;20039;-80
2022/08/12 05:44:14;;;;;;;0.43;0.35;;;;;;;;;;4972011;28;20046;-80
2022/08/12 05:46:43;;;;;;;0.40;0.40;;;;;;;;;;4971657;28;20493;-80
2022/08/12 05:49:11;;;;;;;1.27;0.30;;;;;;;;;;4968584;28;20578;-80
2022/08/12 05:51:42;;;;;;;0.40;0.40;;;;;;;;;;4967491;28;20058;-80
2022/08/12 05:54:12;;;;;;;0.63;0.47;;;;;;;;;;4968737;28;20092;-80
2022/08/12 05:56:41;;;;;;;0.40;0.40;;;;;;;;;;4967892;28;20078;-80
2022/08/12 05:59:10;;;;;;;0.40;0.40;;;;;;;;;;4969026;28;20529;-80
2022/08/12 06:01:40;;;;;;;0.68;0.35;;;;;;;;;;4964652;28;20050;-81
2022/08/12 06:04:28;;;;;;;0.60;0.40;;;;;;;;;;4961683;28;20444;-80
2022/08/12 06:06:57;;;;;;;1.20;0.90;;;;;;;;;;4965253;28;20133;-80
2022/08/12 06:09:29;;;;;;;0.35;0.30;;;;;;;;;;4968624;28;20050;-80
2022/08/12 06:11:58;;;;;;;0.32;0.25;;;;;;;;;;4967209;28;20117;-80
2022/08/12 06:14:35;;;;;;;0.50;0.50;;;;;;;;;;4965978;28;20142;-80
2022/08/12 06:17:06;;;;;;;0.30;0.30;;;;;;;;;;4967129;28;20534;-81
2022/08/12 06:19:35;;;;;;;0.60;0.60;;;;;;;;;;4968247;28;20121;-80
2022/08/12 06:22:25;;;;;;;0.40;0.40;;;;;;;;;;4957841;28;20416;-80
2022/08/12 06:24:55;;;;;;;0.93;0.90;;;;;;;;;;4967778;28;20093;-80
2022/08/12 06:27:23;;;;;;;0.20;0.20;;;;;;;;;;4967663;28;20089;-81
2022/08/12 06:29:52;;;;;;;1.00;0.47;;;;;;;;;;4967686;28;20134;-80
2022/08/12 06:32:38;;;;;;;0.65;0.43;;;;;;;;;;4966408;28;20053;-81
2022/08/12 06:35:27;;;;;;;0.20;0.20;;;;;;;;;;4955294;28;20059;-80
2022/08/12 06:38:16;;;;;;;0.20;0.20;;;;;;;;;;4965322;28;20589;-80
2022/08/12 06:43:33;;;;;;;0.30;0.25;;;;;;;;;;4968644;28;20046;-81
2022/08/12 06:46:22;;;;;;;0.25;0.25;;;;;;;;;;4965673;28;20065;-80
2022/08/12 06:48:56;;;;;;;0.38;0.30;;;;;;;;;;4971087;28;20086;-79
2022/08/12 06:51:25;;;;;;;0.30;0.22;;;;;;;;;;4971544;28;20058;-80
2022/08/12 06:53:54;;;;;;;0.50;0.50;;;;;;;;;;4971127;28;20133;-80
2022/08/12 06:56:24;;;;;;;0.20;0.20;;;;;;;;;;4962293;28;20057;-80
2022/08/12 06:59:14;;;;;;;0.88;0.30;;;;;;;;;;4969947;28;20053;-80
2022/08/12 07:01:43;;;;;;;0.30;0.30;;;;;;;;;;4966271;28;20494;-80
2022/08/12 07:04:18;;;;;;;0.40;0.30;;;;;;;;;;4967912;28;20424;-81
2022/08/12 07:07:07;;;;;;;0.30;0.30;;;;;;;;;;4969789;28;20443;-80
2022/08/12 07:09:36;;;;;;;0.70;0.20;;;;;;;;;;4970877;28;20057;-80
2022/08/12 07:12:26;;;;;;;0.60;0.35;;;;;;;;;;4966454;28;20072;-80
2022/08/12 07:14:56;;;;;;;0.20;0.20;;;;;;;;;;4969476;28;20058;-80
2022/08/12 07:17:24;;;;;;;0.55;0.52;;;;;;;;;;4947706;28;20138;-81
2022/08/12 07:19:53;;;;;;;0.32;0.28;;;;;;;;;;4952314;28;20043;-81
2022/08/12 07:22:27;;;;;;;;;;;;;;;;;;4952067;28;20039;-80
2022/08/12 07:27:41;;;;;;;0.22;0.22;;;;;;;;;;4969034;28;20546;-80
2022/08/12 07:30:10;;;;;;;0.25;0.25;;;;;;;;;;4967637;28;20077;-80
2022/08/12 07:32:39;;;;;;;0.08;0.08;;;;;;;;;;4974046;28;20086;-80
2022/08/12 07:35:08;;;;;;;0.85;0.45;;;;;;;;;;4969133;28;20335;-80
2022/08/12 07:37:40;;;;;;;0.60;0.50;;;;;;;;;;4973152;28;20577;-80
2022/08/12 07:40:10;;;;;;;0.40;0.40;;;;;;;;;;4974500;28;20507;-80
2022/08/12 07:42:42;;;;;;;0.20;0.20;;;;;;;;;;4974037;28;20101;-80
2022/08/12 07:45:11;;;;;;;0.35;0.32;;;;;;;;;;4966355;28;20063;-80
2022/08/12 07:47:42;;;;;;;0.43;0.20;;;;;;;;;;4966697;28;20071;-80
2022/08/12 07:50:11;;;;;;;0.32;0.30;;;;;;;;;;4973423;28;20055;-80
2022/08/12 07:52:41;;;;;;;0.40;0.30;;;;;;;;;;4972112;28;20405;-80
2022/08/12 07:55:10;;;;;;;3.40;0.55;;;;;;;;;;4973159;28;20070;-80
2022/08/12 07:57:51;;;;;;;0.38;0.28;;;;;;;;;;4971677;28;20082;-80
2022/08/12 08:00:19;;;;;;;0.25;0.15;;;;;;;;;;4972289;28;20043;-80
2022/08/12 08:02:49;;;;;;;0.30;0.30;;;;;;;;;;4972333;28;20047;-80
2022/08/12 08:05:18;;;;;;;0.30;0.30;;;;;;;;;;4971373;28;20132;-80
2022/08/12 08:07:46;;;;;;;0.30;0.30;;;;;;;;;;4971524;28;20263;-80
2022/08/12 08:10:15;;;;;;;0.40;0.40;;;;;;;;;;4972849;28;20580;-80
2022/08/12 08:12:57;;;;;;;1.38;0.50;;;;;;;;;;4972760;28;20597;-80
2022/08/12 08:15:29;;;;;;;0.30;0.30;;;;;;;;;;4972409;28;20043;-82
2022/08/12 08:18:19;;;;;;;0.73;0.38;;;;;;;;;;4963217;28;20149;-81
2022/08/12 08:20:55;;;;;;;0.50;0.50;;;;;;;;;;4968876;28;20042;-81
2022/08/12 08:24:13;;;;;;;0.20;0.20;;;;;;;;;;4970797;28;20050;-80
2022/08/12 08:26:14;;;;;;;0.22;0.20;;;;;;;;;;4962060;28;20054;-80
2022/08/12 08:28:43;;;;;;;0.32;0.25;;;;;;;;;;4968723;28;20055;-80
2022/08/12 08:31:13;;;;;;;0.20;0.13;;;;;;;;;;4968393;28;20794;-81
2022/08/12 08:33:42;;;;;;;0.50;0.50;;;;;;;;;;4972350;28;20046;-80
2022/08/12 08:36:31;;;;;;;0.77;0.20;;;;;;;;;;4972261;28;20415;-81
2022/08/12 08:38:59;;;;;;;0.40;0.20;;;;;;;;;;4972751;28;20467;-80
2022/08/12 08:44:35;;;;;;;;;;;;;;;;;;4973071;28;20053;-80
2022/08/12 08:47:05;;;;;;;0.35;0.17;;;;;;;;;;4971876;28;19926;-80
2022/08/12 08:49:35;;;;;;;0.70;0.38;;;;;;;;;;4966450;28;20105;-80
2022/08/12 08:52:05;;;;;;;0.43;0.22;;;;;;;;;;4972229;28;20047;-80
2022/08/12 08:54:36;;;;;;;0.40;0.38;;;;;;;;;;4966603;28;20043;-80
2022/08/12 08:57:06;;;;;;;0.30;0.30;;;;;;;;;;4967417;28;20075;-80
2022/08/12 08:59:35;;;;;;;0.30;0.30;;;;;;;;;;4971755;28;20055;-81
2022/08/12 09:02:05;;;;;;;0.95;0.57;;;;;;;;;;4965851;28;20386;-80
2022/08/12 09:04:36;;;;;;;1.17;0.52;;;;;;;;;;4960567;28;20058;-80
2022/08/12 09:07:24;;;;;;;0.30;0.30;;;;;;;;;;4952542;28;20051;-80
2022/08/12 09:10:15;;;;;;;0.50;0.50;;;;;;;;;;4961806;28;20051;-81
2022/08/12 09:15:51;;;;;;;1.58;1.15;;;;;;;;;;4967404;28;20101;-80
2022/08/12 09:18:29;;;;;;;0.32;0.30;;;;;;;;;;4963411;28;20523;-82
2022/08/12 09:21:02;;;;;;;0.70;0.50;;;;;;;;;;4961506;28;20066;-81
2022/08/12 09:23:35;;;;;;;0.85;0.40;;;;;;;;;;4963089;28;20047;-81
2022/08/12 09:26:24;;;;;;;0.40;0.40;;;;;;;;;;4965625;28;20491;-81
2022/08/12 09:28:56;;;;;;;0.38;0.35;;;;;;;;;;4969147;28;20056;-81
2022/08/12 09:31:26;;;;;;;0.20;0.20;;;;;;;;;;4962539;28;20047;-81
2022/08/12 09:34:17;;;;;;;0.40;0.40;;;;;;;;;;4968879;28;20441;-81
2022/08/12 09:37:02;;;;;;;1.38;0.43;;;;;;;;;;4966403;28;20098;-81
2022/08/12 09:39:52;;;;;;;2.58;0.57;;;;;;;;;;4970122;28;20402;-82
2022/08/12 09:45:47;;;;;;;1.02;0.77;;;;;;;;;;4966822;28;20133;-80
2022/08/12 09:48:36;;;;;;;0.47;0.47;;;;;;;;;;4971519;28;20403;-80
2022/08/12 09:51:09;;;;;;;0.32;0.30;;;;;;;;;;4969530;28;20494;-81
2022/08/12 09:53:50;;;;;;;0.85;0.47;;;;;;;;;;4967412;28;20054;-81
2022/08/12 09:56:39;;;;;;;0.73;0.68;;;;;;;;;;4966576;28;20142;-81
2022/08/12 09:59:27;;;;;;;0.82;0.50;;;;;;;;;;4968162;28;20133;-82
2022/08/12 10:02:16;;;;;;;0.45;0.43;;;;;;;;;;4968932;28;20058;-81
2022/08/12 10:05:04;;;;;;;0.90;0.47;;;;;;;;;;4966548;28;20046;-81
2022/08/12 10:07:41;;;;;;;0.30;0.30;;;;;;;;;;4968049;28;20378;-81
2022/08/12 10:10:11;;;;;;;0.77;0.52;;;;;;;;;;4963558;28;20497;-81
2022/08/12 10:15:59;;;;;;;1.08;0.55;;;;;;;;;;4964112;28;20053;-79
2022/08/12 10:18:33;;;;;;;1.15;0.40;;;;;;;;;;4964998;28;20042;-79
2022/08/12 10:21:06;;;;;;;2.03;0.77;;;;;;;;;;4967660;28;20141;-80
2022/08/12 10:23:36;;;;;;;0.70;0.60;;;;;;;;;;4963186;28;20117;-80
2022/08/12 10:32:15;;;;;;;0.80;0.73;;;;;;;;;;4965240;28;20062;-79
2022/08/12 10:35:04;;;;;;;0.20;0.20;;;;;;;;;;4965475;28;20141;-79
2022/08/12 10:37:32;;;;;;;0.68;0.60;;;;;;;;;;4967637;28;20530;-80
2022/08/12 10:40:22;;;;;;;0.95;0.50;;;;;;;;;;4967854;28;20046;-79
2022/08/12 10:45:47;;;;;;;0.55;0.40;;;;;;;;;;4967081;28;20051;-79
2022/08/12 10:48:19;;;;;;;0.43;0.43;;;;;;;;;;4968210;28;20062;-79
2022/08/12 10:51:02;;;;;;;0.73;0.40;;;;;;;;;;4964040;28;20046;-80
2022/08/12 10:53:55;;;;;;;1.75;0.40;;;;;;;;;;4964515;28;20062;-80
2022/08/12 10:56:31;;;;;;;2.70;0.63;;;;;;;;;;4962353;28;20545;-79
2022/08/12 10:59:03;;;;;;;5.00;0.82;;;;;;;;;;4968458;28;20081;-79
2022/08/12 11:01:33;;;;;;;0.35;0.35;;;;;;;;;;4967531;28;20057;-80
2022/08/12 11:04:21;;;;;;;1.55;0.63;;;;;;;;;;4967425;28;20148;-80
2022/08/12 11:07:12;;;;;;;1.38;0.25;;;;;;;;;;4964999;28;20090;-79
2022/08/12 11:10:00;;;;;;;0.70;0.30;;;;;;;;;;4965719;28;20109;-79
2022/08/12 11:12:31;;;;;;;1.83;0.30;;;;;;;;;;4965523;28;20050;-80
2022/08/12 11:15:22;;;;;;;0.50;0.30;;;;;;;;;;4966868;28;20061;-79
2022/08/12 11:18:10;;;;;;;0.80;0.30;;;;;;;;;;4967800;28;20050;-79
2022/08/12 11:20:47;;;;;;;2.58;0.38;;;;;;;;;;4967043;28;20047;-79
2022/08/12 11:23:16;;;;;;;0.45;0.40;;;;;;;;;;4964478;28;20568;-80
2022/08/12 11:26:06;;;;;;;1.30;0.50;;;;;;;;;;4963191;28;20487;-81
2022/08/12 11:28:37;;;;;;;0.30;0.25;;;;;;;;;;4967945;28;20051;-81
2022/08/12 11:31:09;;;;;;;2.30;0.43;;;;;;;;;;4966426;28;20074;-82
2022/08/12 11:33:42;;;;;;;0.65;0.52;;;;;;;;;;4969207;28;20047;-81
2022/08/12 11:36:30;;;;;;;0.30;0.30;;;;;;;;;;4969266;28;20094;-82
2022/08/12 11:38:59;;;;;;;0.20;0.20;;;;;;;;;;4970406;28;20592;-82
2022/08/12 11:41:33;;;;;;;0.10;0.10;;;;;;;;;;4966717;28;20043;-82
2022/08/12 11:44:03;;;;;;;0.45;0.40;;;;;;;;;;4970127;28;20054;-82
2022/08/12 11:46:53;;;;;;;0.45;0.40;;;;;;;;;;4970102;28;20133;-81
2022/08/12 11:49:22;;;;;;;0.30;0.30;;;;;;;;;;4968169;28;20043;-82
2022/08/12 11:52:00;;;;;;;1.90;0.40;;;;;;;;;;4967299;28;20042;-82
2022/08/12 11:54:28;;;;;;;0.32;0.30;;;;;;;;;;4969127;28;20054;-82
2022/08/12 11:56:57;;;;;;;0.82;0.30;;;;;;;;;;4968200;28;20059;-82
2022/08/12 11:59:29;;;;;;;2.40;0.30;;;;;;;;;;4964111;28;20503;-82
2022/08/12 12:02:18;;;;;;;0.68;0.35;;;;;;;;;;4964478;28;20050;-82
2022/08/12 12:04:48;;;;;;;0.20;0.20;;;;;;;;;;4972391;28;20472;-82
2022/08/12 12:07:21;;;;;;;0.60;0.50;;;;;;;;;;4951820;28;20055;-81
2022/08/12 12:10:10;;;;;;;0.57;0.30;;;;;;;;;;4950420;28;20047;-82
2022/08/12 12:12:39;;;;;;;0.60;0.40;;;;;;;;;;4946363;28;20554;-81
2022/08/12 12:15:11;;;;;;;1.70;0.52;;;;;;;;;;4949616;28;20056;-82
2022/08/12 12:17:41;;;;;;;0.85;0.30;;;;;;;;;;4974176;28;20042;-81
2022/08/12 12:20:10;;;;;;;0.25;0.25;;;;;;;;;;4978741;28;20107;-82
2022/08/12 12:22:40;;;;;;;0.40;0.20;;;;;;;;;;4970516;28;20117;-82
2022/08/12 12:25:12;;;;;;;1.40;0.70;;;;;;;;;;4967176;28;20047;-82
2022/08/12 12:27:48;;;;;;;0.30;0.30;;;;;;;;;;4952895;28;20051;-82
2022/08/12 12:30:34;;;;;;;1.40;0.40;;;;;;;;;;4953615;28;20114;-82
2022/08/12 12:33:05;;;;;;;0.80;0.45;;;;;;;;;;4953176;28;20039;-82
2022/08/12 12:35:34;;;;;;;0.35;0.35;;;;;;;;;;4957683;28;20043;-82
2022/08/12 12:38:22;;;;;;;0.50;0.45;;;;;;;;;;4952764;28;20480;-82
2022/08/12 12:40:53;;;;;;;0.30;0.20;;;;;;;;;;4949940;28;20491;-82
2022/08/12 12:43:22;;;;;;;0.95;0.35;;;;;;;;;;4951593;28;20561;-82
2022/08/12 12:46:11;;;;;;;0.95;0.50;;;;;;;;;;4952925;28;20087;-81
2022/08/12 12:48:41;;;;;;;0.28;0.28;;;;;;;;;;4953168;28;20550;-82
2022/08/12 12:51:18;;;;;;;0.82;0.30;;;;;;;;;;4949679;28;20102;-81
2022/08/12 12:54:06;;;;;;;0.20;0.20;;;;;;;;;;4953563;28;20134;-82
2022/08/12 12:56:40;;;;;;;0.28;0.17;;;;;;;;;;4963516;28;20093;-82
2022/08/12 12:59:09;;;;;;;0.30;0.20;;;;;;;;;;4971928;28;20113;-81
2022/08/12 13:02:03;;;;;;;0.30;0.30;;;;;;;;;;4969135;28;20046;-82
2022/08/12 13:04:36;;;;;;;0.30;0.30;;;;;;;;;;4969668;28;20050;-82
2022/08/12 13:07:05;;;;;;;0.20;0.20;;;;;;;;;;4963651;28;20050;-81
2022/08/12 13:09:34;;;;;;;0.43;0.30;;;;;;;;;;4965146;28;20105;-81
2022/08/12 13:12:04;;;;;;;0.30;0.30;;;;;;;;;;4962965;28;20054;-81
2022/08/12 13:14:37;;;;;;;1.35;0.30;;;;;;;;;;4966359;28;20061;-81
2022/08/12 13:17:10;;;;;;;0.68;0.40;;;;;;;;;;4960253;28;20074;-82
2022/08/12 13:19:44;;;;;;;2.75;0.40;;;;;;;;;;4962691;28;20078;-82
2022/08/12 13:22:20;;;;;;;0.22;0.22;;;;;;;;;;4963723;28;20051;-81
2022/08/12 13:24:53;;;;;;;0.40;0.40;;;;;;;;;;4962796;28;20070;-83
2022/08/12 13:27:28;;;;;;;0.60;0.30;;;;;;;;;;4967684;28;20384;-83
2022/08/12 13:30:06;;;;;;;1.00;0.52;;;;;;;;;;4961530;28;20069;-83
2022/08/12 13:32:42;;;;;;;0.10;0.10;;;;;;;;;;4961914;28;20546;-81
2022/08/12 13:35:24;;;;;;;0.20;0.20;;;;;;;;;;4966115;28;20051;-81
2022/08/12 13:38:12;;;;;;;0.38;0.35;;;;;;;;;;4969676;28;20046;-81
2022/08/12 13:40:42;;;;;;;0.30;0.20;;;;;;;;;;4969974;28;20060;-81
2022/08/12 13:43:16;;;;;;;0.20;0.20;;;;;;;;;;4970959;28;20113;-81
2022/08/12 13:46:08;;;;;;;0.50;0.20;;;;;;;;;;4966498;28;20488;-82
2022/08/12 13:48:42;;;;;;;0.20;0.20;;;;;;;;;;4967404;28;20066;-82
2022/08/12 13:51:13;;;;;;;0.20;0.20;;;;;;;;;;4969983;28;20051;-83
2022/08/12 13:53:41;;;;;;;0.10;0.10;;;;;;;;;;4971611;28;20042;-83
2022/08/12 13:56:27;;;;;;;0.20;0.20;;;;;;;;;;4970262;28;20058;-83
2022/08/12 13:59:02;;;;;;;0.40;0.35;;;;;;;;;;4971161;28;20056;-84
2022/08/12 14:01:31;;;;;;;0.20;0.20;;;;;;;;;;4967792;28;20551;-83
2022/08/12 14:04:03;;;;;;;0.10;0.10;;;;;;;;;;4961385;28;20492;-84
2022/08/12 14:06:32;;;;;;;0.30;0.30;;;;;;;;;;4964843;28;20130;-83
2022/08/12 14:09:01;;;;;;;1.50;0.30;;;;;;;;;;4964121;28;20138;-83
2022/08/12 14:11:45;;;;;;;0.43;0.20;;;;;;;;;;4966291;28;20308;-83
2022/08/12 14:14:27;;;;;;;0.40;0.30;;;;;;;;;;4966151;28;20051;-83
2022/08/12 14:17:00;;;;;;;0.25;0.25;;;;;;;;;;4963640;28;20050;-84
2022/08/12 14:19:34;;;;;;;0.30;0.30;;;;;;;;;;4965010;28;20049;-84
2022/08/12 14:22:18;;;;;;;0.28;0.28;;;;;;;;;;4964354;28;20824;-83
2022/08/12 14:24:47;;;;;;;0.43;0.20;;;;;;;;;;4962662;28;20141;-83
2022/08/12 14:27:20;;;;;;;0.15;0.15;;;;;;;;;;4960881;28;20054;-84
2022/08/12 14:30:09;;;;;;;0.20;0.10;;;;;;;;;;4969994;28;20050;-83
2022/08/12 14:32:44;;;;;;;0.15;0.10;;;;;;;;;;4961072;28;20046;-83
2022/08/12 14:35:18;;;;;;;0.10;0.10;;;;;;;;;;4960087;28;20388;-83
2022/08/12 14:37:49;;;;;;;0.47;0.20;;;;;;;;;;4965269;28;20055;-83
2022/08/12 14:40:26;;;;;;;0.30;0.20;;;;;;;;;;4966731;28;20047;-83
2022/08/12 14:42:56;;;;;;;0.22;0.20;;;;;;;;;;4968659;28;20130;-84
2022/08/12 14:45:25;;;;;;;0.20;0.17;;;;;;;;;;4962837;28;20166;-84
2022/08/12 14:48:15;;;;;;;0.30;0.25;;;;;;;;;;4966087;28;20141;-84
2022/08/12 14:50:44;;;;;;;0.60;0.25;;;;;;;;;;4969500;28;20129;-83
2022/08/12 14:53:33;;;;;;;0.52;0.20;;;;;;;;;;4969554;28;20142;-84
2022/08/12 14:56:24;;;;;;;0.13;0.13;;;;;;;;;;4967434;28;20522;-84
2022/08/12 15:02:20;;;;;;;0.28;0.20;;;;;;;;;;4968894;28;20057;-85
2022/08/12 15:04:54;;;;;;;0.25;0.20;;;;;;;;;;4969809;28;20051;-84
2022/08/12 15:07:26;;;;;;;0.98;0.30;;;;;;;;;;4928852;28;20062;-84
2022/08/12 15:10:14;;;;;;;0.52;0.30;;;;;;;;;;4946042;28;20086;-84
2022/08/12 15:13:04;;;;;;;0.20;0.20;;;;;;;;;;4948494;28;20070;-84
2022/08/12 15:15:37;;;;;;;0.22;0.22;;;;;;;;;;4942110;28;20047;-84
2022/08/12 15:18:13;;;;;;;0.20;0.20;;;;;;;;;;4949539;28;20055;-84
2022/08/12 15:20:42;;;;;;;0.25;0.20;;;;;;;;;;4940279;28;20078;-84
2022/08/12 15:23:12;;;;;;;0.35;0.20;;;;;;;;;;4942505;28;20511;-84
2022/08/12 15:25:48;;;;;;;0.47;0.30;;;;;;;;;;4948999;28;20059;-83
2022/08/12 15:28:28;;;;;;;0.20;0.20;;;;;;;;;;4967248;28;20070;-82
2022/08/12 15:30:59;;;;;;;0.35;0.20;;;;;;;;;;4962735;28;20047;-84
2022/08/12 15:33:29;;;;;;;0.15;0.15;;;;;;;;;;4961653;28;20473;-83
2022/08/12 15:36:14;;;;;;;0.35;0.35;;;;;;;;;;4966543;28;20047;-83
2022/08/12 15:39:04;;;;;;;0.32;0.32;;;;;;;;;;4965789;28;20068;-83
2022/08/12 15:41:44;;;;;;;0.20;0.20;;;;;;;;;;4969754;28;20039;-83
2022/08/12 15:44:18;;;;;;;0.28;0.28;;;;;;;;;;4970201;28;20328;-83
2022/08/12 15:47:06;;;;;;;0.20;0.20;;;;;;;;;;4963509;28;20059;-84
2022/08/12 15:49:36;;;;;;;0.20;0.20;;;;;;;;;;4965477;28;20125;-83
2022/08/12 15:52:25;;;;;;;0.40;0.38;;;;;;;;;;4972783;28;20047;-84
2022/08/12 15:54:58;;;;;;;0.50;0.28;;;;;;;;;;4968977;28;20086;-84
2022/08/12 15:57:40;;;;;;;0.57;0.20;;;;;;;;;;4973155;28;20055;-84
2022/08/12 16:00:09;;;;;;;0.50;0.30;;;;;;;;;;4972575;28;20555;-82
2022/08/12 16:02:58;;;;;;;0.20;0.20;;;;;;;;;;4973608;28;20050;-82
2022/08/12 16:05:28;;;;;;;0.20;0.13;;;;;;;;;;4969316;28;20121;-82
2022/08/12 16:08:16;;;;;;;0.43;0.28;;;;;;;;;;4968599;28;20505;-82
2022/08/12 16:10:56;;;;;;;0.25;0.20;;;;;;;;;;4964877;28;20117;-83
2022/08/12 16:13:25;;;;;;;0.43;0.35;;;;;;;;;;4965059;28;20054;-81
2022/08/12 16:16:05;;;;;;;0.45;0.35;;;;;;;;;;4962895;28;20054;-82
2022/08/12 16:18:55;;;;;;;0.30;0.22;;;;;;;;;;4965231;28;20569;-82
2022/08/12 16:21:28;;;;;;;0.25;0.20;;;;;;;;;;4963529;28;20039;-81
2022/08/12 16:24:17;;;;;;;0.10;0.10;;;;;;;;;;4962906;28;20140;-84
2022/08/12 16:26:47;;;;;;;0.88;0.30;;;;;;;;;;4963566;28;20507;-82
2022/08/12 16:29:25;;;;;;;0.65;0.50;;;;;;;;;;4963014;28;20242;-81
2022/08/12 16:32:05;;;;;;;10.25;2.20;;;;;;;;;;4963752;28;20046;-81
2022/08/12 16:34:36;;;;;;;1.20;1.02;;;;;;;;;;4965453;28;20129;-81
2022/08/12 16:37:23;;;;;;;5.95;1.48;;;;;;;;;;4940273;28;20051;-82
2022/08/12 16:40:00;;;;;;;1.33;0.77;;;;;;;;;;4965301;28;20058;-81
2022/08/12 16:42:37;;;;;;;0.88;0.88;;;;;;;;;;4964030;28;20057;-81
2022/08/12 16:45:11;;;;;;;2.03;0.60;;;;;;;;;;4960930;28;20059;-81
2022/08/12 16:47:44;;;;;;;0.77;0.70;;;;;;;;;;4943958;28;20491;-81
2022/08/12 16:50:26;;;;;;;3.10;0.57;;;;;;;;;;4944140;28;20093;-82
2022/08/12 16:53:00;;;;;;;1.20;0.40;;;;;;;;;;4943451;28;20543;-82
2022/08/12 16:55:33;;;;;;;0.43;0.40;;;;;;;;;;4946426;28;20051;-87
2022/08/12 16:58:13;;;;;;;0.17;0.13;;;;;;;;;;4943345;28;20051;-81
2022/08/12 17:00:59;;;;;;;0.40;0.38;;;;;;;;;;4943580;28;20047;-81
2022/08/12 17:03:31;;;;;;;2.47;0.38;;;;;;;;;;4945367;28;20058;-81
2022/08/12 17:06:09;;;;;;;0.28;0.10;;;;;;;;;;4944675;28;20062;-81
2022/08/12 17:08:39;;;;;;;0.20;0.20;;;;;;;;;;4946516;28;20539;-80
2022/08/12 17:11:16;;;;;;;0.50;0.40;;;;;;;;;;4948997;28;20059;-80
2022/08/12 17:13:48;;;;;;;0.22;0.22;;;;;;;;;;4942959;28;20061;-81
2022/08/12 17:16:21;;;;;;;0.45;0.45;;;;;;;;;;4960112;28;20059;-80
2022/08/12 17:18:57;;;;;;;0.40;0.20;;;;;;;;;;4967693;28;20043;-80
2022/08/12 17:21:37;;;;;;;0.20;0.20;;;;;;;;;;4967343;28;20070;-81
2022/08/12 17:24:27;;;;;;;0.40;0.30;;;;;;;;;;4963645;28;20141;-81
2022/08/12 17:26:59;;;;;;;0.13;0.13;;;;;;;;;;4945419;28;20510;-82
2022/08/12 17:29:29;;;;;;;0.35;0.20;;;;;;;;;;4947084;28;20142;-80
2022/08/12 17:32:19;;;;;;;0.68;0.28;;;;;;;;;;4946606;28;20067;-80
2022/08/12 17:37:43;;;;;;;0.10;0.10;;;;;;;;;;4949077;28;20114;-80